sensor_id;sensor_type;location;lat;lon;timestamp;temperature;humidity
35491;DHT22;21605;52.068;20.806;2023-08-06T07:17:09;23.20;99.90
35491;DHT22;21605;52.068;20.806;2023-08-06T07:33:57;23.50;99.90
35491;DHT22;21605;52.068;20.806;2023-08-06T07:57:18;24.40;99.90
35491;DHT22;21605;52.068;20.806;2023-08-06T07:59:43;24.60;99.90
35491;DHT22;21605;52.068;20.806;2023-08-06T08:02:11;24.70;99.90
35491;DHT22;21605;52.068;20.806;2023-08-06T08:08:36;24.90;99.90
35491;DHT22;21605;52.068;20.806;2023-08-06T08:18:07;25.20;99.90
35491;DHT22;21605;52.068;20.806;2023-08-06T08:20:33;25.40;99.90
35491;DHT22;21605;52.068;20.806;2023-08-06T08:23:26;25.50;99.90
35491;DHT22;21605;52.068;20.806;2023-08-06T08:29:06;25.70;99.90
35491;DHT22;21605;52.068;20.806;2023-08-06T08:31:53;25.70;99.90
35491;DHT22;21605;52.068;20.806;2023-08-06T08:34:21;25.80;99.90
35491;DHT22;21605;52.068;20.806;2023-08-06T08:36:47;26.00;99.90
35491;DHT22;21605;52.068;20.806;2023-08-06T08:39:20;26.10;99.90
35491;DHT22;21605;52.068;20.806;2023-08-06T08:45:23;26.20;99.90
35491;DHT22;21605;52.068;20.806;2023-08-06T08:54:49;26.60;99.90
35491;DHT22;21605;52.068;20.806;2023-08-06T08:57:20;26.90;99.90
35491;DHT22;21605;52.068;20.806;2023-08-06T08:59:54;27.00;99.60
35491;DHT22;21605;52.068;20.806;2023-08-06T09:02:25;27.40;99.90
35491;DHT22;21605;52.068;20.806;2023-08-06T09:18:33;28.20;98.50
35491;DHT22;21605;52.068;20.806;2023-08-06T09:35:05;30.40;96.00
35491;DHT22;21605;52.068;20.806;2023-08-06T09:48:08;30.80;94.00
35491;DHT22;21605;52.068;20.806;2023-08-06T09:51:05;30.80;94.80
35491;DHT22;21605;52.068;20.806;2023-08-06T09:57:11;31.10;95.00
35491;DHT22;21605;52.068;20.806;2023-08-06T10:10:32;31.40;91.70
35491;DHT22;21605;52.068;20.806;2023-08-06T10:12:59;31.10;89.20
35491;DHT22;21605;52.068;20.806;2023-08-06T10:29:35;30.60;90.90
35491;DHT22;21605;52.068;20.806;2023-08-06T10:38:57;30.20;91.80
35491;DHT22;21605;52.068;20.806;2023-08-06T10:45:21;29.50;89.00
35491;DHT22;21605;52.068;20.806;2023-08-06T10:47:59;29.40;90.90
35491;DHT22;21605;52.068;20.806;2023-08-06T10:50:25;29.40;91.30
35491;DHT22;21605;52.068;20.806;2023-08-06T10:53:29;29.50;92.00
35491;DHT22;21605;52.068;20.806;2023-08-06T10:56:00;29.40;92.40
35491;DHT22;21605;52.068;20.806;2023-08-06T10:58:46;29.50;92.20
35491;DHT22;21605;52.068;20.806;2023-08-06T11:01:15;29.60;91.70
35491;DHT22;21605;52.068;20.806;2023-08-06T11:03:45;29.50;92.50
35491;DHT22;21605;52.068;20.806;2023-08-06T11:06:20;29.60;92.70
35491;DHT22;21605;52.068;20.806;2023-08-06T11:08:53;29.70;92.90
35491;DHT22;21605;52.068;20.806;2023-08-06T11:11:20;29.80;92.90
35491;DHT22;21605;52.068;20.806;2023-08-06T11:13:58;29.90;93.40
35491;DHT22;21605;52.068;20.806;2023-08-06T11:16:27;30.10;92.90
35491;DHT22;21605;52.068;20.806;2023-08-06T11:18:53;30.20;93.00
35491;DHT22;21605;52.068;20.806;2023-08-06T11:21:22;30.20;91.90
35491;DHT22;21605;52.068;20.806;2023-08-06T11:23:51;30.20;90.80
35491;DHT22;21605;52.068;20.806;2023-08-06T11:26:22;30.20;90.90
35491;DHT22;21605;52.068;20.806;2023-08-06T11:32:09;30.10;90.20
35491;DHT22;21605;52.068;20.806;2023-08-06T11:34:35;29.90;89.90
35491;DHT22;21605;52.068;20.806;2023-08-06T11:37:05;30.20;90.60
35491;DHT22;21605;52.068;20.806;2023-08-06T11:40:02;30.10;89.00
35491;DHT22;21605;52.068;20.806;2023-08-06T11:42:46;30.20;89.80
35491;DHT22;21605;52.068;20.806;2023-08-06T11:45:12;29.90;88.20
35491;DHT22;21605;52.068;20.806;2023-08-06T11:47:39;30.00;89.80
35491;DHT22;21605;52.068;20.806;2023-08-06T11:50:06;29.90;88.80
35491;DHT22;21605;52.068;20.806;2023-08-06T11:52:45;29.90;89.00
35491;DHT22;21605;52.068;20.806;2023-08-06T11:55:11;30.00;89.90
35491;DHT22;21605;52.068;20.806;2023-08-06T11:57:43;30.10;89.70
35491;DHT22;21605;52.068;20.806;2023-08-06T12:00:13;30.20;90.80
35491;DHT22;21605;52.068;20.806;2023-08-06T13:42:56;27.40;91.50
35491;DHT22;21605;52.068;20.806;2023-08-06T16:47:17;25.20;92.50
35491;DHT22;21605;52.068;20.806;2023-08-06T16:49:43;25.10;92.70
35491;DHT22;21605;52.068;20.806;2023-08-06T16:52:10;25.00;92.50
35491;DHT22;21605;52.068;20.806;2023-08-06T16:54:47;25.00;92.70
35491;DHT22;21605;52.068;20.806;2023-08-06T17:38:25;23.10;95.60
35491;DHT22;21605;52.068;20.806;2023-08-06T17:40:54;22.80;96.00
35491;DHT22;21605;52.068;20.806;2023-08-06T18:01:00;21.80;96.20
35491;DHT22;21605;52.068;20.806;2023-08-06T18:36:55;20.10;97.40
35491;DHT22;21605;52.068;20.806;2023-08-06T18:39:26;20.00;97.70
35491;DHT22;21605;52.068;20.806;2023-08-06T18:45:15;21.20;98.10
35491;DHT22;21605;52.068;20.806;2023-08-06T18:47:41;19.80;97.90
35491;DHT22;21605;52.068;20.806;2023-08-06T18:50:07;19.80;97.60
35491;DHT22;21605;52.068;20.806;2023-08-06T18:52:32;19.70;97.70
35491;DHT22;21605;52.068;20.806;2023-08-06T18:54:58;19.70;97.90
35491;DHT22;21605;52.068;20.806;2023-08-06T18:57:24;19.60;98.00
35491;DHT22;21605;52.068;20.806;2023-08-06T18:59:51;19.50;97.90
35491;DHT22;21605;52.068;20.806;2023-08-06T19:02:18;19.50;98.10
35491;DHT22;21605;52.068;20.806;2023-08-06T19:04:44;19.50;97.90
35491;DHT22;21605;52.068;20.806;2023-08-06T19:07:11;19.40;98.10
35491;DHT22;21605;52.068;20.806;2023-08-06T19:10:05;19.30;98.20
35491;DHT22;21605;52.068;20.806;2023-08-06T19:15:55;19.20;98.10
35491;DHT22;21605;52.068;20.806;2023-08-06T19:18:21;19.20;98.10
35491;DHT22;21605;52.068;20.806;2023-08-06T19:20:49;19.20;98.20
35491;DHT22;21605;52.068;20.806;2023-08-06T19:23:24;19.10;98.40
35491;DHT22;21605;52.068;20.806;2023-08-06T19:25:52;19.10;98.10
35491;DHT22;21605;52.068;20.806;2023-08-06T19:28:18;19.00;98.40
35491;DHT22;21605;52.068;20.806;2023-08-06T19:30:47;19.00;98.30
35491;DHT22;21605;52.068;20.806;2023-08-06T19:33:13;19.00;98.90
35491;DHT22;21605;52.068;20.806;2023-08-06T19:35:54;19.00;98.40
35491;DHT22;21605;52.068;20.806;2023-08-06T19:38:21;19.00;98.40
35491;DHT22;21605;52.068;20.806;2023-08-06T19:40:48;18.90;98.60
35491;DHT22;21605;52.068;20.806;2023-08-06T19:43:14;18.90;98.90
35491;DHT22;21605;52.068;20.806;2023-08-06T19:45:49;18.90;99.00
35491;DHT22;21605;52.068;20.806;2023-08-06T19:48:15;18.80;98.70
35491;DHT22;21605;52.068;20.806;2023-08-06T19:50:41;18.80;98.70
35491;DHT22;21605;52.068;20.806;2023-08-06T19:53:07;18.80;98.60
35491;DHT22;21605;52.068;20.806;2023-08-06T19:55:37;18.80;99.00
35491;DHT22;21605;52.068;20.806;2023-08-06T19:58:03;18.70;99.20
35491;DHT22;21605;52.068;20.806;2023-08-06T20:00:29;18.70;99.30
35491;DHT22;21605;52.068;20.806;2023-08-06T20:02:55;18.70;99.10
35491;DHT22;21605;52.068;20.806;2023-08-06T20:05:21;18.70;98.90
35491;DHT22;21605;52.068;20.806;2023-08-06T20:07:46;18.70;98.70
35491;DHT22;21605;52.068;20.806;2023-08-06T20:10:12;18.70;98.90
35491;DHT22;21605;52.068;20.806;2023-08-06T20:12:38;18.70;99.20
35491;DHT22;21605;52.068;20.806;2023-08-06T20:15:08;18.70;99.20
35491;DHT22;21605;52.068;20.806;2023-08-06T20:17:36;18.60;99.70
35491;DHT22;21605;52.068;20.806;2023-08-06T20:20:02;18.60;99.00
35491;DHT22;21605;52.068;20.806;2023-08-06T20:22:28;18.60;99.30
35491;DHT22;21605;52.068;20.806;2023-08-06T20:24:54;18.60;99.60
35491;DHT22;21605;52.068;20.806;2023-08-06T20:27:20;18.60;99.60
35491;DHT22;21605;52.068;20.806;2023-08-06T20:29:46;18.50;99.30
35491;DHT22;21605;52.068;20.806;2023-08-06T20:32:12;18.50;99.70
35491;DHT22;21605;52.068;20.806;2023-08-06T20:34:38;18.50;99.90
35491;DHT22;21605;52.068;20.806;2023-08-06T20:37:04;18.40;99.60
35491;DHT22;21605;52.068;20.806;2023-08-06T20:39:30;18.50;99.50
35491;DHT22;21605;52.068;20.806;2023-08-06T20:41:56;18.40;99.90
35491;DHT22;21605;52.068;20.806;2023-08-06T20:44:22;18.40;99.90
35491;DHT22;21605;52.068;20.806;2023-08-06T20:46:48;18.40;99.90
35491;DHT22;21605;52.068;20.806;2023-08-06T20:49:16;18.40;99.90
35491;DHT22;21605;52.068;20.806;2023-08-06T20:52:01;18.40;99.90
35491;DHT22;21605;52.068;20.806;2023-08-06T20:54:26;18.40;99.50
35491;DHT22;21605;52.068;20.806;2023-08-06T20:56:52;18.30;99.70
35491;DHT22;21605;52.068;20.806;2023-08-06T20:59:18;18.30;99.70
35491;DHT22;21605;52.068;20.806;2023-08-06T21:01:47;18.30;99.90
35491;DHT22;21605;52.068;20.806;2023-08-06T21:04:13;18.30;99.90
35491;DHT22;21605;52.068;20.806;2023-08-06T21:06:39;18.30;99.80
35491;DHT22;21605;52.068;20.806;2023-08-06T21:09:05;18.30;99.90
35491;DHT22;21605;52.068;20.806;2023-08-06T21:11:33;18.30;99.90
35491;DHT22;21605;52.068;20.806;2023-08-06T21:14:01;18.20;99.90
35491;DHT22;21605;52.068;20.806;2023-08-06T21:16:27;18.20;99.90
35491;DHT22;21605;52.068;20.806;2023-08-06T21:19:32;18.20;99.90
35491;DHT22;21605;52.068;20.806;2023-08-06T21:21:58;18.20;99.90
35491;DHT22;21605;52.068;20.806;2023-08-06T21:24:26;18.20;99.90
35491;DHT22;21605;52.068;20.806;2023-08-06T21:27:05;18.20;99.90
35491;DHT22;21605;52.068;20.806;2023-08-06T21:29:31;18.20;99.90
35491;DHT22;21605;52.068;20.806;2023-08-06T21:31:57;18.20;99.90
35491;DHT22;21605;52.068;20.806;2023-08-06T21:34:23;18.20;99.90
35491;DHT22;21605;52.068;20.806;2023-08-06T21:36:49;18.20;99.90
35491;DHT22;21605;52.068;20.806;2023-08-06T21:39:16;18.20;99.90
35491;DHT22;21605;52.068;20.806;2023-08-06T21:41:42;18.10;99.90
35491;DHT22;21605;52.068;20.806;2023-08-06T21:44:08;18.10;99.90
35491;DHT22;21605;52.068;20.806;2023-08-06T21:46:34;18.10;99.90
35491;DHT22;21605;52.068;20.806;2023-08-06T21:49:00;18.10;99.90
35491;DHT22;21605;52.068;20.806;2023-08-06T21:51:26;18.10;99.90
35491;DHT22;21605;52.068;20.806;2023-08-06T21:53:52;18.10;99.90
35491;DHT22;21605;52.068;20.806;2023-08-06T21:56:18;18.00;99.90
35491;DHT22;21605;52.068;20.806;2023-08-06T21:58:46;18.00;99.90
35491;DHT22;21605;52.068;20.806;2023-08-06T22:01:12;18.00;99.90
35491;DHT22;21605;52.068;20.806;2023-08-06T22:03:40;17.90;99.90
35491;DHT22;21605;52.068;20.806;2023-08-06T22:06:06;17.90;99.90
35491;DHT22;21605;52.068;20.806;2023-08-06T22:08:45;17.80;99.90
35491;DHT22;21605;52.068;20.806;2023-08-06T22:11:11;17.80;99.90
35491;DHT22;21605;52.068;20.806;2023-08-06T22:13:37;17.80;99.90
35491;DHT22;21605;52.068;20.806;2023-08-06T22:16:26;17.80;99.90
35491;DHT22;21605;52.068;20.806;2023-08-06T22:18:54;17.70;99.90
35491;DHT22;21605;52.068;20.806;2023-08-06T22:21:19;17.70;99.90
35491;DHT22;21605;52.068;20.806;2023-08-06T22:23:57;17.60;99.90
35491;DHT22;21605;52.068;20.806;2023-08-06T22:26:26;17.60;99.90
35491;DHT22;21605;52.068;20.806;2023-08-06T22:28:58;17.50;99.90
35491;DHT22;21605;52.068;20.806;2023-08-06T22:31:34;17.50;99.90
35491;DHT22;21605;52.068;20.806;2023-08-06T22:33:59;17.40;99.90
35491;DHT22;21605;52.068;20.806;2023-08-06T22:36:25;17.40;99.90
35491;DHT22;21605;52.068;20.806;2023-08-06T22:38:51;17.40;99.90
35491;DHT22;21605;52.068;20.806;2023-08-06T22:41:17;17.30;99.90
35491;DHT22;21605;52.068;20.806;2023-08-06T22:43:43;17.20;99.90
35491;DHT22;21605;52.068;20.806;2023-08-06T22:46:09;17.20;99.90
35491;DHT22;21605;52.068;20.806;2023-08-06T22:48:35;17.20;99.90
35491;DHT22;21605;52.068;20.806;2023-08-06T22:51:08;17.20;99.90
35491;DHT22;21605;52.068;20.806;2023-08-06T22:53:34;17.10;99.90
35491;DHT22;21605;52.068;20.806;2023-08-06T22:55:59;17.10;99.90
35491;DHT22;21605;52.068;20.806;2023-08-06T22:58:25;17.10;99.90
35491;DHT22;21605;52.068;20.806;2023-08-06T23:00:51;17.10;99.90
35491;DHT22;21605;52.068;20.806;2023-08-06T23:03:17;17.00;99.90
35491;DHT22;21605;52.068;20.806;2023-08-06T23:05:43;17.00;99.90
35491;DHT22;21605;52.068;20.806;2023-08-06T23:08:09;17.00;99.90
35491;DHT22;21605;52.068;20.806;2023-08-06T23:10:35;17.00;99.90
35491;DHT22;21605;52.068;20.806;2023-08-06T23:13:01;16.90;99.90
35491;DHT22;21605;52.068;20.806;2023-08-06T23:15:26;16.90;99.90
35491;DHT22;21605;52.068;20.806;2023-08-06T23:17:52;16.90;99.90
35491;DHT22;21605;52.068;20.806;2023-08-06T23:20:18;16.90;99.90
35491;DHT22;21605;52.068;20.806;2023-08-06T23:22:44;16.90;99.90
35491;DHT22;21605;52.068;20.806;2023-08-06T23:25:10;16.80;99.90
35491;DHT22;21605;52.068;20.806;2023-08-06T23:27:50;16.80;99.90
35491;DHT22;21605;52.068;20.806;2023-08-06T23:30:25;16.80;99.90
35491;DHT22;21605;52.068;20.806;2023-08-06T23:32:50;16.80;99.90
35491;DHT22;21605;52.068;20.806;2023-08-06T23:35:16;16.80;99.90
35491;DHT22;21605;52.068;20.806;2023-08-06T23:37:42;16.80;99.90
35491;DHT22;21605;52.068;20.806;2023-08-06T23:40:08;16.80;99.90
35491;DHT22;21605;52.068;20.806;2023-08-06T23:42:34;16.80;99.90
35491;DHT22;21605;52.068;20.806;2023-08-06T23:45:00;16.80;99.90
35491;DHT22;21605;52.068;20.806;2023-08-06T23:47:26;16.70;99.90
35491;DHT22;21605;52.068;20.806;2023-08-06T23:49:54;16.70;99.90
35491;DHT22;21605;52.068;20.806;2023-08-06T23:52:19;16.70;99.90
35491;DHT22;21605;52.068;20.806;2023-08-06T23:54:54;16.70;99.90
35491;DHT22;21605;52.068;20.806;2023-08-06T23:57:22;16.70;99.90
35491;DHT22;21605;52.068;20.806;2023-08-06T23:59:48;16.60;99.90
